Главная страница
METAR-TAF:

METAR-TAF

Аэропорты :

Трольхеттан-Венерсборг, Швеция

широта: 58-19N, долгота: 012-21E, высота над уровнем моря: 41 м

Текущие метеонаблюдения

Эта сводка был подготовлена 28 минут назад, в 12:20 UTC
Ветер 17 Узел от южный-юго-западный
Температура 9°C
Влажность 87%
Давление 975 hPa
Видимость: 7000 м
небольшой дождь

METAR: ESGT 081220Z AUTO 21017KT 7000 R15/P2000N R33///// -RA SCT004/// BKN006/// OVC009/// 09/07 Q0975 RESHRA RESHUP

Время: 13:48 (12:48 UTC)

Прогноз

Эта сводка был подготовлена 18 минут назад, в 12:30 UTC
Прогноз действительный с 08-го 13 UTC до 08-го 15 UTC
Ветер 18 Узел от юго-западный с порывами до 35 Узел
Видимость 10 км и более
Рассеянная облачность на высоте 800 фута
временами
С 08-го 13 UTC до 08-го 15 UTC
Видимость: 2500 м
Рассеянная облачность на высоте 1500 фута
Рассеянная облачность на высоте 2000 фута, Кучево-дождевые.
ливневые дожди

TAF: ESGT 081230Z 0813/0815 23018G35KT 9999 BKN008 TEMPO 0813/0815 2500 SHRA BKN015 BKN020CB

Метеонаблюдения и прогнозы для более 4000 аэропортов (сводки METAR и TAF).

Имеющиеся станции представлены на карте желтыми и красными точками.

Чтобы увидеть название станции, наведите на нее мышь.

Затем щелкните, чтобы увидеть метеонаблюдения и метеопрогнозы.

Управление картой: чтобы увеличить масштаб, щелкните зеленые кнопки с черным крестиком; чтобы уменьшить масштаб, щелкните зеленую кнопку с тире; для просмотра соседних карт щелкайте зеленые стрелки.


METAR-TAF: